createdAt,value
2023-05-17T00:01:52.001Z,81.44
2023-05-17T00:04:10.381Z,82.34
2023-05-17T00:06:27.814Z,82.55
2023-05-17T00:08:44.817Z,82.69
2023-05-17T00:11:02.206Z,82.71
2023-05-17T00:13:19.493Z,83.08
2023-05-17T00:15:36.844Z,83.39
2023-05-17T00:17:54.194Z,83.08
2023-05-17T00:20:11.554Z,83.16
2023-05-17T00:22:28.519Z,83.33
2023-05-17T00:24:45.460Z,83.08
2023-05-17T00:27:02.846Z,82.70
2023-05-17T00:29:21.232Z,83.70
2023-05-17T00:31:38.415Z,83.97
2023-05-17T00:33:55.678Z,84.20
2023-05-17T00:36:12.996Z,84.48
2023-05-17T00:38:30.328Z,84.25
2023-05-17T00:40:47.291Z,84.37
2023-05-17T00:43:04.641Z,84.25
2023-05-17T00:45:21.992Z,84.33
2023-05-17T00:47:39.439Z,83.56
2023-05-17T00:49:57.850Z,84.01
2023-05-17T00:52:15.112Z,84.17
2023-05-17T00:54:32.387Z,84.16
2023-05-17T00:56:49.688Z,83.92
2023-05-17T00:59:07.730Z,84.03
2023-05-17T01:01:25.051Z,84.38
2023-05-17T01:03:42.193Z,84.57
2023-05-17T01:06:00.002Z,84.34
2023-05-17T01:08:17.694Z,84.15
2023-05-17T01:10:35.439Z,84.76
2023-05-17T01:12:52.429Z,84.78
2023-05-17T01:15:09.826Z,84.99
2023-05-17T01:17:27.216Z,85.26
2023-05-17T01:19:44.691Z,85.13
2023-05-17T01:22:02.088Z,84.63
2023-05-17T01:24:19.443Z,84.33
2023-05-17T01:26:36.759Z,84.44
2023-05-17T01:28:53.679Z,83.90
2023-05-17T01:31:12.913Z,84.40
2023-05-17T01:33:30.361Z,84.77
2023-05-17T01:35:47.839Z,84.62
2023-05-17T01:38:05.621Z,84.53
2023-05-17T01:40:23.385Z,85.37
2023-05-17T01:42:40.383Z,85.24
2023-05-17T01:44:57.916Z,85.24
2023-05-17T01:47:15.566Z,85.31
2023-05-17T01:49:33.184Z,85.97
2023-05-17T01:51:50.124Z,85.18
2023-05-17T01:54:10.483Z,85.45
2023-05-17T01:56:27.730Z,85.01
2023-05-17T01:58:44.961Z,84.65
2023-05-17T02:01:01.956Z,85.87
2023-05-17T02:03:19.298Z,85.24
2023-05-17T02:05:36.166Z,85.18
2023-05-17T02:07:53.574Z,85.99
2023-05-17T02:10:10.554Z,85.22
2023-05-17T02:12:27.486Z,86.14
2023-05-17T02:14:44.819Z,86.04
2023-05-17T02:17:02.050Z,85.97
2023-05-17T02:19:19.423Z,85.52
2023-05-17T02:21:36.818Z,86.11
2023-05-17T02:23:54.178Z,85.73
2023-05-17T02:26:11.434Z,86.06
2023-05-17T02:28:28.785Z,85.61
2023-05-17T02:30:46.063Z,85.72
2023-05-17T02:33:04.515Z,85.03
2023-05-17T02:35:21.943Z,86.00
2023-05-17T02:37:38.831Z,85.47
2023-05-17T02:39:56.554Z,85.64
2023-05-17T02:42:13.504Z,86.63
2023-05-17T02:44:30.518Z,86.23
2023-05-17T02:46:50.152Z,85.81
2023-05-17T02:49:07.422Z,85.70
2023-05-17T02:51:25.665Z,85.60
2023-05-17T02:53:42.912Z,85.72
2023-05-17T02:55:59.885Z,85.46
2023-05-17T02:58:17.219Z,86.61
2023-05-17T03:00:34.516Z,85.76
2023-05-17T03:02:51.564Z,85.84
2023-05-17T03:05:08.912Z,85.44
2023-05-17T03:07:26.228Z,85.86
2023-05-17T03:09:43.553Z,86.94
2023-05-17T03:12:00.878Z,87.07
2023-05-17T03:14:18.228Z,87.32
2023-05-17T03:16:35.571Z,87.48
2023-05-17T03:18:52.993Z,87.04
2023-05-17T03:21:10.435Z,86.52
2023-05-17T03:23:27.566Z,87.23
2023-05-17T03:25:44.858Z,87.26
2023-05-17T03:28:02.188Z,87.51
2023-05-17T03:30:19.576Z,86.90
2023-05-17T03:32:36.992Z,85.81
2023-05-17T03:34:53.944Z,85.42
2023-05-17T03:37:10.988Z,86.36
2023-05-17T03:39:28.237Z,85.59
2023-05-17T03:41:45.225Z,85.06
2023-05-17T03:44:03.500Z,85.06
2023-05-17T03:46:20.463Z,85.23
2023-05-17T03:48:38.904Z,83.94
2023-05-17T03:50:56.379Z,84.17
2023-05-17T03:53:13.700Z,85.18
2023-05-17T03:55:30.690Z,85.40
2023-05-17T03:57:48.073Z,85.63
2023-05-17T04:00:05.450Z,85.49
2023-05-17T04:02:22.767Z,85.15
2023-05-17T04:04:40.099Z,85.67
2023-05-17T04:06:57.441Z,85.74
2023-05-17T04:09:14.782Z,87.40
2023-05-17T04:11:32.050Z,86.44
2023-05-17T04:13:49.369Z,87.01
2023-05-17T04:16:06.321Z,87.48
2023-05-17T04:18:24.817Z,88.04
2023-05-17T04:20:42.202Z,87.13
2023-05-17T04:22:59.544Z,87.43
2023-05-17T04:25:16.831Z,87.02
2023-05-17T04:27:34.210Z,87.31
2023-05-17T04:29:51.509Z,87.57
2023-05-17T04:32:08.806Z,87.19
2023-05-17T04:34:27.103Z,87.84
2023-05-17T04:36:45.392Z,87.65
2023-05-17T04:39:02.724Z,88.30
2023-05-17T04:41:20.010Z,88.59
2023-05-17T04:43:37.322Z,88.62
2023-05-17T04:45:55.025Z,88.61
2023-05-17T04:48:12.402Z,89.06
2023-05-17T04:50:29.404Z,88.70
2023-05-17T04:52:47.093Z,87.94
2023-05-17T04:55:04.500Z,87.81
2023-05-17T04:57:21.970Z,88.35
2023-05-17T04:59:39.363Z,88.24
2023-05-17T05:01:56.671Z,88.44
2023-05-17T05:04:14.995Z,88.38
2023-05-17T05:06:32.380Z,88.22
2023-05-17T05:08:49.322Z,88.48
2023-05-17T05:11:07.013Z,88.13
2023-05-17T05:13:23.991Z,88.54
2023-05-17T05:15:41.039Z,87.70
2023-05-17T05:17:58.171Z,87.69
2023-05-17T05:20:15.498Z,88.13
2023-05-17T05:22:32.854Z,88.24
2023-05-17T05:24:49.730Z,88.02
2023-05-17T05:27:07.170Z,87.83
2023-05-17T05:29:24.699Z,87.83
2023-05-17T05:31:42.465Z,87.08
2023-05-17T05:34:00.455Z,87.13
2023-05-17T05:36:17.341Z,88.02
2023-05-17T05:38:34.405Z,87.80
2023-05-17T05:40:51.773Z,88.16
2023-05-17T05:43:09.117Z,87.72
2023-05-17T05:45:26.459Z,87.49
2023-05-17T05:47:43.500Z,87.41
2023-05-17T05:50:00.886Z,87.56
2023-05-17T05:52:18.190Z,86.86
2023-05-17T05:54:35.559Z,87.85
2023-05-17T05:56:52.811Z,86.92
2023-05-17T05:59:10.161Z,86.46
2023-05-17T06:01:27.094Z,86.81
2023-05-17T06:03:44.974Z,86.16
2023-05-17T06:06:02.400Z,86.18
2023-05-17T06:08:19.989Z,86.50
2023-05-17T06:10:37.276Z,87.39
2023-05-17T06:12:54.623Z,86.23
2023-05-17T06:15:12.026Z,86.20
2023-05-17T06:17:29.322Z,86.65
2023-05-17T06:19:46.330Z,87.21
2023-05-17T06:22:03.360Z,88.28
2023-05-17T06:24:20.743Z,87.37
2023-05-17T06:26:37.751Z,86.19
2023-05-17T06:28:55.172Z,86.30
2023-05-17T06:31:12.104Z,85.53
2023-05-17T06:33:29.136Z,85.35
2023-05-17T06:35:56.058Z,84.82
2023-05-17T06:38:14.662Z,83.83
2023-05-17T06:40:32.356Z,84.53
2023-05-17T06:42:49.370Z,83.62
2023-05-17T06:45:06.666Z,82.64
2023-05-17T06:47:23.964Z,79.35
2023-05-17T06:49:41.305Z,79.76
2023-05-17T06:51:58.203Z,79.44
2023-05-17T06:54:17.348Z,76.11
2023-05-17T06:56:34.698Z,76.40
2023-05-17T06:58:52.052Z,75.01
2023-05-17T07:01:09.444Z,74.43
2023-05-17T07:03:26.915Z,74.95
2023-05-17T07:05:43.924Z,74.19
2023-05-17T07:08:01.605Z,71.63
2023-05-17T07:10:19.908Z,72.20
2023-05-17T07:12:37.053Z,71.74
2023-05-17T07:14:54.024Z,72.58
2023-05-17T07:17:10.995Z,72.79
2023-05-17T07:19:28.367Z,72.64
2023-05-17T07:21:46.769Z,71.32
2023-05-17T07:24:04.124Z,70.16
2023-05-17T07:26:21.871Z,69.89
2023-05-17T07:28:39.479Z,70.12
2023-05-17T07:30:56.798Z,70.32
2023-05-17T07:33:14.182Z,70.39
2023-05-17T07:35:31.582Z,69.59
2023-05-17T07:37:49.072Z,70.59
2023-05-17T07:40:06.385Z,69.79
2023-05-17T07:42:24.145Z,68.43
2023-05-17T07:44:42.080Z,68.07
2023-05-17T07:46:59.038Z,68.96
2023-05-17T07:49:16.081Z,67.45
2023-05-17T07:51:33.381Z,65.76
2023-05-17T07:53:50.752Z,66.38
2023-05-17T07:56:08.129Z,65.05
2023-05-17T07:58:25.143Z,63.88
2023-05-17T08:00:42.415Z,65.32
2023-05-17T08:03:00.758Z,65.47
2023-05-17T08:05:18.032Z,64.27
2023-05-17T08:07:34.969Z,65.90
2023-05-17T08:09:52.148Z,64.73
2023-05-17T08:12:09.465Z,65.00
2023-05-17T08:14:26.742Z,63.06
2023-05-17T08:16:44.097Z,63.92
2023-05-17T08:19:01.855Z,64.86
2023-05-17T08:21:19.240Z,64.24
2023-05-17T08:23:36.616Z,64.51
2023-05-17T08:25:54.019Z,64.59
2023-05-17T08:28:10.953Z,64.31
2023-05-17T08:30:29.467Z,63.63
2023-05-17T08:32:46.746Z,63.93
2023-05-17T08:35:04.259Z,63.44
2023-05-17T08:37:21.226Z,63.42
2023-05-17T08:39:38.591Z,63.02
2023-05-17T08:41:55.967Z,61.14
2023-05-17T08:44:13.292Z,61.17
2023-05-17T08:46:31.295Z,60.76
2023-05-17T08:48:49.292Z,60.62
2023-05-17T08:51:06.596Z,60.43
2023-05-17T08:53:24.301Z,60.79
2023-05-17T08:55:42.004Z,62.05
2023-05-17T08:58:00.977Z,61.09
2023-05-17T09:00:19.311Z,58.92
2023-05-17T09:02:36.721Z,58.89
2023-05-17T09:04:53.842Z,59.59
2023-05-17T09:07:11.324Z,57.37
2023-05-17T09:09:28.687Z,59.38
2023-05-17T09:11:47.135Z,59.38
2023-05-17T09:14:05.415Z,56.97
2023-05-17T09:16:22.362Z,57.66
2023-05-17T09:18:39.392Z,58.73
2023-05-17T09:20:56.532Z,58.43
2023-05-17T09:23:13.777Z,59.15
2023-05-17T09:25:30.741Z,59.16
2023-05-17T09:27:47.744Z,58.92
2023-05-17T09:30:05.082Z,57.48
2023-05-17T09:32:22.413Z,59.13
2023-05-17T09:34:39.472Z,59.73
2023-05-17T09:36:56.535Z,60.11
2023-05-17T09:39:14.919Z,60.99
2023-05-17T09:41:32.568Z,60.11
2023-05-17T09:43:49.534Z,59.75
2023-05-17T09:46:07.211Z,59.98
2023-05-17T09:48:25.027Z,57.82
2023-05-17T09:50:42.342Z,56.40
2023-05-17T09:52:59.629Z,58.22
2023-05-17T09:55:17.379Z,57.60
2023-05-17T09:57:35.040Z,57.46
2023-05-17T09:59:53.369Z,56.37
2023-05-17T10:02:10.336Z,58.46
2023-05-17T10:04:27.291Z,57.51
2023-05-17T10:06:49.701Z,56.57
2023-05-17T10:09:08.901Z,55.89
2023-05-17T10:11:26.284Z,55.80
2023-05-17T10:13:43.641Z,54.03
2023-05-17T10:16:00.800Z,54.95
2023-05-17T10:18:17.819Z,56.99
2023-05-17T10:20:36.133Z,55.21
2023-05-17T10:22:53.401Z,55.60
2023-05-17T10:25:10.812Z,55.44
2023-05-17T10:27:28.161Z,56.99
2023-05-17T10:29:49.229Z,57.74
2023-05-17T10:32:07.978Z,56.92
2023-05-17T10:34:25.297Z,55.51
2023-05-17T10:36:42.519Z,55.93
2023-05-17T10:38:59.860Z,54.33
2023-05-17T10:41:17.607Z,52.93
2023-05-17T10:43:34.964Z,50.00
2023-05-17T10:45:52.012Z,51.39
2023-05-17T10:48:09.477Z,50.42
2023-05-17T10:50:27.006Z,50.66
2023-05-17T10:52:44.721Z,50.12
2023-05-17T10:55:03.015Z,52.88
2023-05-17T10:57:20.029Z,52.15
2023-05-17T10:59:37.128Z,53.77
2023-05-17T11:01:54.434Z,50.46
2023-05-17T11:04:11.836Z,48.18
2023-05-17T11:06:29.233Z,48.00
2023-05-17T11:08:46.573Z,48.35
2023-05-17T11:11:05.697Z,48.23
2023-05-17T11:13:22.986Z,48.58
2023-05-17T11:15:39.959Z,48.27
2023-05-17T11:17:58.266Z,45.52
2023-05-17T11:20:16.893Z,46.00
2023-05-17T11:22:34.244Z,40.15
2023-05-17T11:24:51.602Z,41.10
2023-05-17T11:27:08.954Z,41.98
2023-05-17T11:29:26.299Z,44.35
2023-05-17T11:31:43.734Z,44.32
2023-05-17T11:34:01.112Z,44.14
2023-05-17T11:36:18.181Z,41.94
2023-05-17T11:38:35.584Z,43.94
2023-05-17T11:40:52.589Z,45.98
2023-05-17T11:43:09.966Z,42.81
2023-05-17T11:45:27.584Z,42.96
2023-05-17T11:47:45.334Z,43.41
2023-05-17T11:50:02.828Z,42.74
2023-05-17T11:52:20.661Z,44.71
2023-05-17T11:54:38.144Z,43.48
2023-05-17T11:56:55.106Z,44.66
2023-05-17T11:59:12.594Z,43.98
2023-05-17T12:01:30.915Z,41.39
2023-05-17T12:03:48.290Z,43.16
2023-05-17T12:06:05.311Z,44.15
2023-05-17T12:08:22.423Z,44.04
2023-05-17T12:10:39.695Z,43.21
2023-05-17T12:12:57.494Z,42.37
2023-05-17T12:15:14.434Z,42.67
2023-05-17T12:17:32.036Z,43.45
2023-05-17T12:19:50.401Z,42.10
2023-05-17T12:22:08.358Z,44.20
2023-05-17T12:24:25.796Z,44.49
2023-05-17T12:26:42.780Z,40.87
2023-05-17T12:29:00.192Z,41.78
2023-05-17T12:31:17.485Z,41.91
2023-05-17T12:33:35.047Z,45.58
2023-05-17T12:35:52.493Z,44.45
2023-05-17T12:38:09.808Z,46.22
2023-05-17T12:40:26.932Z,45.00
2023-05-17T12:42:45.101Z,46.62
2023-05-17T12:45:02.603Z,45.54
2023-05-17T12:47:19.651Z,45.67
2023-05-17T12:49:37.047Z,44.06
2023-05-17T12:51:56.588Z,41.44
2023-05-17T12:54:13.582Z,42.74
2023-05-17T12:56:30.967Z,43.61
2023-05-17T12:58:48.261Z,43.34
2023-05-17T13:01:08.410Z,43.34
2023-05-17T13:03:27.052Z,45.81
2023-05-17T13:05:44.453Z,43.44
2023-05-17T13:08:03.570Z,42.75
2023-05-17T13:10:20.824Z,45.22
2023-05-17T13:12:38.127Z,44.24
2023-05-17T13:14:55.413Z,43.09
2023-05-17T13:17:12.463Z,43.08
2023-05-17T13:19:31.167Z,41.82
2023-05-17T13:21:48.885Z,42.39
2023-05-17T13:24:05.888Z,45.18
2023-05-17T13:26:23.265Z,44.86
2023-05-17T13:28:40.214Z,43.28
2023-05-17T13:30:58.597Z,42.89
2023-05-17T13:33:16.057Z,44.83
2023-05-17T13:35:34.140Z,41.38
2023-05-17T13:37:52.505Z,43.61
2023-05-17T13:40:09.511Z,42.86
2023-05-17T13:42:26.948Z,43.42
2023-05-17T13:44:44.290Z,44.61
2023-05-17T13:47:01.270Z,42.28
2023-05-17T13:49:19.131Z,42.93
2023-05-17T13:51:36.317Z,40.72
2023-05-17T13:53:53.572Z,40.57
2023-05-17T13:56:10.634Z,42.36
2023-05-17T13:58:27.652Z,40.80
2023-05-17T14:00:44.979Z,42.64
2023-05-17T14:03:02.003Z,42.72
2023-05-17T14:05:19.160Z,40.37
2023-05-17T14:07:36.497Z,40.99
2023-05-17T14:09:53.852Z,39.25
2023-05-17T14:12:11.231Z,41.88
2023-05-17T14:14:28.381Z,41.63
2023-05-17T14:16:45.317Z,41.72
2023-05-17T14:19:04.816Z,42.37
2023-05-17T14:21:22.823Z,39.26
2023-05-17T14:23:41.144Z,39.57
2023-05-17T14:25:58.150Z,38.31
2023-05-17T14:28:15.123Z,39.26
2023-05-17T14:30:32.603Z,37.94
2023-05-17T14:32:50.100Z,39.76
2023-05-17T14:35:07.176Z,40.56
2023-05-17T14:37:24.505Z,39.50
2023-05-17T14:39:42.620Z,39.84
2023-05-17T14:42:01.175Z,40.78
2023-05-17T14:44:18.104Z,41.35
2023-05-17T14:46:35.368Z,39.19
2023-05-17T14:48:52.808Z,38.96
2023-05-17T14:51:09.959Z,37.99
2023-05-17T14:53:26.891Z,39.75
2023-05-17T14:55:44.231Z,39.39
2023-05-17T14:58:02.548Z,38.74
2023-05-17T15:00:19.960Z,40.38
2023-05-17T15:02:36.880Z,37.87
2023-05-17T15:04:53.961Z,38.83
2023-05-17T15:07:12.370Z,38.44
2023-05-17T15:09:29.697Z,38.38
2023-05-17T15:11:47.002Z,38.10
2023-05-17T15:14:03.912Z,40.76
2023-05-17T15:16:21.209Z,39.86
2023-05-17T15:18:38.584Z,41.04
2023-05-17T15:20:55.923Z,41.78
2023-05-17T15:23:13.236Z,40.86
2023-05-17T15:25:30.731Z,38.65
2023-05-17T15:27:47.828Z,37.81
2023-05-17T15:30:06.230Z,38.47
2023-05-17T15:32:23.551Z,38.60
2023-05-17T15:34:40.890Z,39.91
2023-05-17T15:36:57.978Z,38.61
2023-05-17T15:39:15.309Z,39.14
2023-05-17T15:41:32.598Z,37.77
2023-05-17T15:43:50.934Z,39.91
2023-05-17T15:46:07.867Z,39.75
2023-05-17T15:48:25.244Z,38.67
2023-05-17T15:50:42.275Z,38.82
2023-05-17T15:53:01.798Z,39.02
2023-05-17T15:55:19.893Z,41.27
2023-05-17T15:57:37.213Z,39.50
2023-05-17T15:59:55.442Z,40.06
2023-05-17T16:02:12.738Z,41.23
2023-05-17T16:04:30.176Z,40.30
2023-05-17T16:06:47.685Z,38.81
2023-05-17T16:09:04.674Z,40.34
2023-05-17T16:11:21.947Z,39.58
2023-05-17T16:13:39.260Z,36.66
2023-05-17T16:15:56.353Z,39.10
2023-05-17T16:18:13.694Z,39.51
2023-05-17T16:20:30.782Z,38.00
2023-05-17T16:22:49.148Z,40.83
2023-05-17T16:25:06.512Z,39.57
2023-05-17T16:27:23.777Z,39.41
2023-05-17T16:29:40.712Z,39.86
2023-05-17T16:31:57.646Z,40.53
2023-05-17T16:34:15.160Z,41.31
2023-05-17T16:36:32.594Z,40.12
2023-05-17T16:38:50.872Z,40.82
2023-05-17T16:41:07.835Z,39.72
2023-05-17T16:43:25.193Z,40.88
2023-05-17T16:45:42.216Z,40.14
2023-05-17T16:47:59.543Z,39.57
2023-05-17T16:50:16.905Z,39.97
2023-05-17T16:52:34.276Z,39.30
2023-05-17T16:54:51.221Z,39.83
2023-05-17T16:57:08.396Z,39.94
2023-05-17T16:59:25.911Z,40.13
2023-05-17T17:01:43.212Z,41.43
2023-05-17T17:04:00.406Z,42.39
2023-05-17T17:06:17.844Z,41.84
2023-05-17T17:08:35.649Z,39.83
2023-05-17T17:10:52.938Z,40.12
2023-05-17T17:13:09.920Z,40.74
2023-05-17T17:15:27.218Z,40.64
2023-05-17T17:17:44.258Z,40.40
2023-05-17T17:20:02.578Z,41.89
2023-05-17T17:22:19.935Z,42.20
2023-05-17T17:24:37.285Z,39.77
2023-05-17T17:26:54.307Z,42.01
2023-05-17T17:29:11.637Z,42.09
2023-05-17T17:31:28.952Z,42.28
2023-05-17T17:33:46.222Z,42.53
2023-05-17T17:36:03.520Z,42.32
2023-05-17T17:38:20.864Z,43.64
2023-05-17T17:40:38.172Z,42.58
2023-05-17T17:42:55.206Z,43.33
2023-05-17T17:45:12.605Z,44.91
2023-05-17T17:47:29.645Z,43.44
2023-05-17T17:49:48.034Z,42.88
2023-05-17T17:52:05.550Z,43.40
2023-05-17T17:54:22.902Z,43.87
2023-05-17T17:56:39.830Z,43.86
2023-05-17T17:58:57.151Z,44.19
2023-05-17T18:01:14.207Z,44.86
2023-05-17T18:03:31.638Z,45.16
2023-05-17T18:05:49.348Z,45.03
2023-05-17T18:08:06.300Z,45.31
2023-05-17T18:10:23.612Z,45.42
2023-05-17T18:12:40.716Z,46.98
2023-05-17T18:14:57.650Z,46.76
2023-05-17T18:17:15.119Z,47.05
2023-05-17T18:19:32.041Z,47.98
2023-05-17T18:21:49.424Z,49.83
2023-05-17T18:24:06.704Z,50.36
2023-05-17T18:26:25.016Z,49.04
2023-05-17T18:28:43.219Z,51.24
2023-05-17T18:31:00.716Z,51.54
2023-05-17T18:33:17.997Z,53.58
2023-05-17T18:35:35.709Z,53.81
2023-05-17T18:37:53.057Z,53.33
2023-05-17T18:40:10.342Z,55.02
2023-05-17T18:42:27.293Z,55.41
2023-05-17T18:44:44.959Z,55.54
2023-05-17T18:47:02.020Z,55.85
2023-05-17T18:49:19.077Z,55.07
2023-05-17T18:51:36.436Z,55.21
2023-05-17T18:53:53.364Z,55.47
2023-05-17T18:56:10.726Z,56.09
2023-05-17T18:58:28.100Z,56.11
2023-05-17T19:00:45.426Z,56.59
2023-05-17T19:03:02.781Z,58.30
2023-05-17T19:05:20.135Z,58.08
2023-05-17T19:07:38.469Z,58.75
2023-05-17T19:09:55.814Z,59.40
2023-05-17T19:12:13.609Z,59.19
2023-05-17T19:14:30.587Z,59.10
2023-05-17T19:16:47.599Z,59.86
2023-05-17T19:19:04.585Z,59.56
2023-05-17T19:21:21.513Z,60.41
2023-05-17T19:23:38.832Z,60.61
2023-05-17T19:25:56.230Z,61.17
2023-05-17T19:28:13.578Z,61.80
2023-05-17T19:30:32.765Z,61.88
2023-05-17T19:32:50.450Z,62.53
2023-05-17T19:35:07.892Z,62.65
2023-05-17T19:37:25.179Z,63.21
2023-05-17T19:39:42.504Z,63.37
2023-05-17T19:41:59.789Z,64.01
2023-05-17T19:44:17.215Z,64.65
2023-05-17T19:46:34.251Z,65.41
2023-05-17T19:48:51.665Z,64.87
2023-05-17T19:51:09.056Z,65.46
2023-05-17T19:53:28.621Z,66.18
2023-05-17T19:55:49.348Z,66.72
2023-05-17T19:58:06.718Z,67.31
2023-05-17T20:00:23.612Z,68.20
2023-05-17T20:02:42.814Z,67.04
2023-05-17T20:04:59.857Z,66.54
2023-05-17T20:07:16.929Z,67.24
2023-05-17T20:09:33.911Z,67.20
2023-05-17T20:11:51.906Z,67.21
2023-05-17T20:14:09.077Z,68.07
2023-05-17T20:16:26.258Z,68.62
2023-05-17T20:18:43.551Z,69.26
2023-05-17T20:21:01.234Z,68.87
2023-05-17T20:23:18.653Z,69.56
2023-05-17T20:25:36.057Z,69.29
2023-05-17T20:27:53.100Z,69.69
2023-05-17T20:30:10.499Z,68.88
2023-05-17T20:32:27.809Z,68.79
2023-05-17T20:34:45.106Z,69.31
2023-05-17T20:37:02.464Z,69.50
2023-05-17T20:39:22.134Z,69.49
2023-05-17T20:41:40.021Z,69.93
2023-05-17T20:43:57.351Z,71.54
2023-05-17T20:46:15.749Z,72.03
2023-05-17T20:48:33.721Z,71.89
2023-05-17T20:50:51.196Z,70.84
2023-05-17T20:53:09.469Z,71.25
2023-05-17T20:55:26.470Z,70.66
2023-05-17T20:57:43.575Z,71.00
2023-05-17T21:00:00.957Z,70.28
2023-05-17T21:02:18.323Z,71.09
2023-05-17T21:04:35.639Z,71.33
2023-05-17T21:06:52.999Z,72.44
2023-05-17T21:09:10.370Z,72.34
2023-05-17T21:11:27.931Z,72.33
2023-05-17T21:13:45.189Z,70.92
2023-05-17T21:16:02.235Z,71.28
2023-05-17T21:18:19.686Z,71.26
2023-05-17T21:20:37.095Z,71.87
2023-05-17T21:22:54.675Z,72.84
2023-05-17T21:25:12.061Z,72.91
2023-05-17T21:27:29.374Z,72.20
2023-05-17T21:29:46.725Z,72.85
2023-05-17T21:32:03.726Z,72.66
2023-05-17T21:34:20.802Z,72.50
2023-05-17T21:36:38.091Z,72.42
2023-05-17T21:38:55.426Z,72.45
2023-05-17T21:41:12.562Z,72.76
2023-05-17T21:43:30.145Z,74.21
2023-05-17T21:45:47.877Z,73.47
2023-05-17T21:48:13.220Z,74.35
2023-05-17T21:50:30.778Z,73.93
2023-05-17T21:52:49.140Z,74.77
2023-05-17T21:55:06.128Z,75.43
2023-05-17T21:57:23.563Z,74.64
2023-05-17T21:59:40.976Z,74.63
2023-05-17T22:01:58.057Z,75.50
2023-05-17T22:04:15.059Z,76.44
2023-05-17T22:06:32.468Z,76.35
2023-05-17T22:08:49.805Z,76.88
2023-05-17T22:11:06.851Z,75.62
2023-05-17T22:13:23.852Z,75.79
2023-05-17T22:15:41.121Z,76.70
2023-05-17T22:17:58.199Z,76.67
2023-05-17T22:20:15.184Z,76.73
2023-05-17T22:22:32.816Z,76.05
2023-05-17T22:24:50.734Z,76.67
2023-05-17T22:27:07.993Z,76.18
2023-05-17T22:29:25.090Z,77.07
2023-05-17T22:31:42.505Z,76.83
2023-05-17T22:33:59.909Z,77.02
2023-05-17T22:36:17.004Z,77.25
2023-05-17T22:38:34.434Z,77.13
2023-05-17T22:40:52.743Z,77.01
2023-05-17T22:43:12.145Z,77.27
2023-05-17T22:45:29.268Z,77.26
2023-05-17T22:47:46.905Z,77.43
2023-05-17T22:50:04.419Z,78.53
2023-05-17T22:52:21.764Z,77.82
2023-05-17T22:54:40.170Z,78.54
2023-05-17T22:56:57.542Z,78.32
2023-05-17T22:59:14.921Z,78.26
2023-05-17T23:01:32.335Z,78.60
2023-05-17T23:03:49.765Z,78.70
2023-05-17T23:06:07.237Z,78.76
2023-05-17T23:08:24.243Z,79.05
2023-05-17T23:10:41.595Z,78.94
2023-05-17T23:12:58.725Z,79.09
2023-05-17T23:15:15.705Z,79.40
2023-05-17T23:17:34.423Z,79.68
2023-05-17T23:19:51.554Z,79.32
2023-05-17T23:22:08.692Z,79.46
2023-05-17T23:24:25.818Z,79.42
2023-05-17T23:26:44.005Z,79.95
2023-05-17T23:29:01.384Z,79.83
2023-05-17T23:31:18.820Z,79.93
2023-05-17T23:33:36.649Z,79.99
2023-05-17T23:35:53.634Z,79.91
2023-05-17T23:38:10.994Z,80.19
2023-05-17T23:40:28.360Z,80.62
2023-05-17T23:42:46.307Z,80.55
2023-05-17T23:45:03.437Z,80.25
2023-05-17T23:47:20.675Z,79.98
2023-05-17T23:49:37.988Z,80.57
2023-05-17T23:51:54.946Z,80.43
2023-05-17T23:54:12.215Z,80.73
2023-05-17T23:56:29.461Z,81.18
2023-05-17T23:58:46.791Z,80.53
